Humidity-temperature Sensor

Selected Measurement Type: Air Temperature

 
Air Temperature [°C]     6 entries per hour
Showing data from 2/10/2023 (00:00:00 Z) to 2/9/2023 (00:01:00 Z)
Previous Next [ Day | 3-Days | 7-Days ]
First Last
Prev [ Day | 3-Days | 7-Days ] Next
First Last

Start Time:     :
End Time:     :     
Time (in GMT) :00 :50 :40 :30 :20 :10
Previous Next [ Day | 3-Days | 7-Days ]
First Last
Prev [ Day | 3-Days | 7-Days ] Next
First Last


123 => good data
MM => data is determined as missing
-- => data not received/configured
Back to Top Back to Top
2/10/2023 00:00 to 23:10 26.58 26.71 26.52 26.61 26.72 26.65
2/9/2023 23:00 to 22:10 26.56 26.55 26.57 26.69 26.57 26.57
2/9/2023 22:00 to 21:10 26.63 26.78 26.59 26.60 26.68 26.66
2/9/2023 21:00 to 20:10 26.79 26.53 26.64 26.63 26.65 26.51
2/9/2023 20:00 to 19:10 26.74 26.62 26.52 26.57 26.45 26.60
2/9/2023 19:00 to 18:10 26.59 26.62 26.48 26.58 26.65 26.50
2/9/2023 18:00 to 17:10 26.64 26.58 26.59 26.57 26.75 26.69
2/9/2023 17:00 to 16:10 26.54 26.73 26.54 26.56 26.53 26.64
2/9/2023 16:00 to 15:10 26.68 26.45 26.53 26.73 26.65 26.59
2/9/2023 15:00 to 14:10 26.53 26.51 26.62 26.55 26.56 26.47
2/9/2023 14:00 to 13:10 26.52 26.47 26.48 26.57 26.35 26.50
2/9/2023 13:00 to 12:10 26.33 26.40 26.49 26.27 26.45 26.28
2/9/2023 12:00 to 11:10 26.27 26.44 26.32 26.24 26.21 26.26
2/9/2023 11:00 to 10:10 26.07 26.22 26.34 26.19 26.18 26.33
2/9/2023 10:00 to 9:10 26.32 26.24 26.13 26.19 26.27 26.17
2/9/2023 09:00 to 8:10 26.36 26.26 26.45 26.27 26.34 26.28
2/9/2023 08:00 to 7:10 26.46 26.41 26.28 26.29 26.43 26.37
2/9/2023 07:00 to 6:10 26.56 26.58 26.54 26.43 26.48 26.59
2/9/2023 06:00 to 5:10 26.52 26.64 26.66 26.59 26.67 26.83
2/9/2023 05:00 to 4:10 26.89 26.88 26.69 26.87 26.65 26.66
2/9/2023 04:00 to 3:10 26.50 26.42 26.71 26.56 26.58 26.52
2/9/2023 03:00 to 2:10 26.60 26.67 26.45 26.55 26.70 26.60
2/9/2023 02:00 to 1:10 26.57 26.58 26.76 26.80 26.70 26.65
2/9/2023 01:00 to 0:10 26.62 26.76 26.64 26.80 26.70 26.72